createdAt,value
2019-02-05T00:02:12.008Z,9.63
2019-02-05T00:04:42.304Z,8.80
2019-02-05T00:07:12.519Z,9.37
2019-02-05T00:09:43.703Z,10.93
2019-02-05T00:12:15.108Z,8.63
2019-02-05T00:14:44.195Z,9.67
2019-02-05T00:17:13.315Z,10.33
2019-02-05T00:19:44.104Z,9.73
2019-02-05T00:22:13.564Z,9.53
2019-02-05T00:24:43.200Z,8.37
2019-02-05T00:27:12.486Z,9.43
2019-02-05T00:29:41.597Z,9.90
2019-02-05T00:32:10.699Z,9.97
2019-02-05T00:34:41.206Z,9.20
2019-02-05T00:37:10.602Z,9.23
2019-02-05T00:39:39.988Z,9.90
2019-02-05T00:42:10.063Z,9.37
2019-02-05T00:44:39.141Z,10.73
2019-02-05T00:47:10.384Z,10.17
2019-02-05T00:49:41.583Z,11.10
2019-02-05T00:52:15.543Z,9.67
2019-02-05T00:54:47.926Z,10.60
2019-02-05T00:57:19.981Z,9.20
2019-02-05T00:59:53.664Z,9.93
2019-02-05T01:02:30.281Z,9.70
2019-02-05T01:04:59.389Z,10.70
2019-02-05T01:07:28.491Z,9.90
2019-02-05T01:09:57.600Z,10.37
2019-02-05T01:12:28.352Z,11.23
2019-02-05T01:15:00.491Z,11.53
2019-02-05T01:17:31.225Z,9.70
2019-02-05T01:20:02.737Z,11.90
2019-02-05T01:22:31.860Z,10.80
2019-02-05T01:25:01.053Z,10.33
2019-02-05T01:27:31.188Z,10.40
2019-02-05T01:30:03.547Z,8.30
2019-02-05T01:32:34.573Z,10.93
2019-02-05T01:35:07.034Z,9.70
2019-02-05T01:37:40.267Z,9.13
2019-02-05T01:40:11.542Z,9.77
2019-02-05T01:42:42.648Z,10.90
2019-02-05T01:45:14.316Z,11.30
2019-02-05T01:47:43.466Z,11.63
2019-02-05T01:50:17.539Z,11.60
2019-02-05T01:52:46.676Z,10.10
2019-02-05T01:55:15.772Z,11.77
2019-02-05T01:57:48.599Z,10.90
2019-02-05T02:00:23.064Z,11.23
2019-02-05T02:02:53.711Z,9.40
2019-02-05T02:05:23.427Z,12.30
2019-02-05T02:07:57.180Z,10.90
2019-02-05T02:10:32.552Z,12.10
2019-02-05T02:13:08.715Z,10.10
2019-02-05T02:15:37.900Z,10.60
2019-02-05T02:18:07.124Z,11.20
2019-02-05T02:20:37.623Z,10.10
2019-02-05T02:23:11.194Z,10.40
2019-02-05T02:25:40.594Z,10.50
2019-02-05T02:28:12.539Z,11.47
2019-02-05T02:30:45.091Z,11.17
2019-02-05T02:33:12.533Z,10.23
2019-02-05T02:35:41.685Z,12.33
2019-02-05T02:38:12.274Z,12.10
2019-02-05T02:40:45.702Z,11.93
2019-02-05T02:43:14.845Z,11.00
2019-02-05T02:45:43.946Z,10.43
2019-02-05T02:48:13.781Z,12.40
2019-02-05T02:50:43.051Z,13.20
2019-02-05T02:53:12.143Z,13.20
2019-02-05T02:55:42.513Z,11.93
2019-02-05T02:58:13.623Z,13.63
2019-02-05T03:00:45.330Z,11.10
2019-02-05T03:03:15.280Z,12.93
2019-02-05T03:05:44.415Z,11.43
2019-02-05T03:08:16.528Z,14.63
2019-02-05T03:10:46.015Z,14.03
2019-02-05T03:13:18.733Z,11.47
2019-02-05T03:15:49.023Z,12.40
2019-02-05T03:18:19.310Z,12.03
2019-02-05T03:20:50.259Z,13.77
2019-02-05T03:23:25.732Z,11.17
2019-02-05T03:25:57.868Z,11.17
2019-02-05T03:28:27.137Z,12.57
2019-02-05T03:30:57.364Z,11.73
2019-02-05T03:33:27.642Z,11.57
2019-02-05T03:35:57.875Z,12.33
2019-02-05T03:38:30.078Z,13.03
2019-02-05T03:41:05.671Z,10.97
2019-02-05T03:43:39.833Z,11.80
2019-02-05T03:46:18.618Z,11.90
2019-02-05T03:48:49.481Z,13.10
2019-02-05T03:51:46.058Z,13.27
2019-02-05T03:55:06.687Z,11.77
2019-02-05T03:58:05.804Z,11.40
2019-02-05T04:01:19.219Z,13.50
2019-02-05T04:04:00.261Z,13.50
2019-02-05T04:07:11.134Z,11.67
2019-02-05T04:10:17.036Z,13.30
2019-02-05T04:13:33.247Z,12.67
2019-02-05T04:16:49.090Z,11.83
2019-02-05T04:19:53.710Z,11.00
2019-02-05T04:23:09.861Z,10.87
2019-02-05T04:26:07.919Z,12.30
2019-02-05T04:29:03.862Z,11.43
2019-02-05T04:32:09.866Z,11.77
2019-02-05T04:35:32.530Z,12.80
2019-02-05T04:38:42.199Z,10.43
2019-02-05T04:41:49.495Z,12.20
2019-02-05T04:44:59.865Z,12.80
2019-02-05T04:47:51.871Z,13.63
2019-02-05T04:51:07.098Z,11.20
2019-02-05T04:54:03.759Z,12.70
2019-02-05T04:57:07.132Z,15.03
2019-02-05T05:00:29.710Z,13.40
2019-02-05T05:03:24.001Z,14.87
2019-02-05T05:06:30.124Z,14.20
2019-02-05T05:09:13.939Z,12.73
2019-02-05T05:11:48.504Z,12.40
2019-02-05T05:14:17.648Z,11.70
2019-02-05T05:16:48.746Z,12.90
2019-02-05T05:19:18.524Z,11.83
2019-02-05T05:21:50.734Z,12.97
2019-02-05T05:24:23.045Z,13.53
2019-02-05T05:26:54.355Z,15.40
2019-02-05T05:29:26.047Z,13.37
2019-02-05T05:31:56.457Z,12.63
2019-02-05T05:34:28.314Z,13.60
2019-02-05T05:36:56.242Z,13.37
2019-02-05T05:39:25.402Z,11.57
2019-02-05T05:41:57.207Z,13.37
2019-02-05T05:44:26.843Z,12.40
2019-02-05T05:47:02.100Z,13.43
2019-02-05T05:49:33.576Z,13.27
2019-02-05T05:52:04.377Z,12.60
2019-02-05T05:54:33.870Z,14.17
2019-02-05T05:57:04.066Z,13.50
2019-02-05T05:59:38.170Z,13.33
2019-02-05T06:02:07.707Z,12.63
2019-02-05T06:04:36.920Z,15.00
2019-02-05T06:07:06.016Z,12.60
2019-02-05T06:09:36.361Z,13.03
2019-02-05T06:12:10.925Z,12.27
2019-02-05T06:14:44.880Z,12.87
2019-02-05T06:17:17.865Z,10.90
2019-02-05T06:19:47.650Z,13.90
2019-02-05T06:22:17.177Z,13.57
2019-02-05T06:24:46.487Z,12.30
2019-02-05T06:27:16.473Z,13.93
2019-02-05T06:29:49.608Z,13.73
2019-02-05T06:32:18.743Z,15.10
2019-02-05T06:34:51.972Z,13.60
2019-02-05T06:37:24.635Z,13.50
2019-02-05T06:39:53.781Z,15.07
2019-02-05T06:42:28.932Z,15.13
2019-02-05T06:44:58.790Z,13.03
2019-02-05T06:47:27.963Z,12.23
2019-02-05T06:49:57.105Z,15.43
2019-02-05T06:52:26.239Z,14.93
2019-02-05T06:54:55.391Z,15.47
2019-02-05T06:57:30.697Z,17.40
2019-02-05T07:00:04.970Z,15.00
2019-02-05T07:02:34.247Z,15.30
2019-02-05T07:05:03.645Z,15.13
2019-02-05T07:07:34.557Z,16.67
2019-02-05T07:10:07.415Z,13.97
2019-02-05T07:12:43.036Z,14.40
2019-02-05T07:15:12.167Z,12.87
2019-02-05T07:17:49.705Z,13.93
2019-02-05T07:20:17.829Z,15.53
2019-02-05T07:22:46.926Z,14.20
2019-02-05T07:25:18.041Z,14.27
2019-02-05T07:27:47.401Z,12.63
2019-02-05T07:30:19.833Z,15.30
2019-02-05T07:32:54.637Z,14.50
2019-02-05T07:35:26.265Z,14.03
2019-02-05T07:37:55.699Z,16.20
2019-02-05T07:40:29.172Z,13.90
2019-02-05T07:43:07.530Z,14.80
2019-02-05T07:45:41.116Z,12.37
2019-02-05T07:48:10.794Z,13.87
2019-02-05T07:50:44.038Z,13.00
2019-02-05T07:53:13.118Z,14.20
2019-02-05T07:55:44.785Z,14.20
2019-02-05T07:58:13.925Z,12.47
2019-02-05T08:00:44.135Z,13.73
2019-02-05T08:03:18.768Z,13.33
2019-02-05T08:05:48.682Z,15.07
2019-02-05T08:08:17.793Z,13.67
2019-02-05T08:10:52.813Z,13.60
2019-02-05T08:13:27.301Z,14.47
2019-02-05T08:15:56.394Z,15.07
2019-02-05T08:18:28.176Z,13.80
2019-02-05T08:21:02.341Z,15.70
2019-02-05T08:23:31.774Z,12.93
2019-02-05T08:26:01.187Z,16.10
2019-02-05T08:28:40.663Z,14.23
2019-02-05T08:31:03.227Z,14.57
2019-02-05T08:33:32.414Z,14.20
2019-02-05T08:36:01.620Z,15.80
2019-02-05T08:38:30.838Z,13.70
2019-02-05T08:40:59.963Z,14.67
2019-02-05T08:43:29.463Z,14.37
2019-02-05T08:46:15.665Z,15.60
2019-02-05T08:48:49.880Z,13.60
2019-02-05T08:51:19.026Z,13.87
2019-02-05T08:53:49.786Z,14.30
2019-02-05T08:56:19.031Z,13.13
2019-02-05T08:58:53.377Z,14.10
2019-02-05T09:01:22.565Z,13.63
2019-02-05T09:03:53.644Z,15.27
2019-02-05T09:06:23.284Z,15.33
2019-02-05T09:08:52.597Z,13.50
2019-02-05T09:11:21.688Z,13.47
2019-02-05T09:13:52.017Z,14.33
2019-02-05T09:16:22.211Z,13.80
2019-02-05T09:18:53.688Z,15.53
2019-02-05T09:21:26.982Z,14.90
2019-02-05T09:23:56.114Z,12.30
2019-02-05T09:26:25.427Z,11.17
2019-02-05T09:29:00.569Z,11.43
2019-02-05T09:31:43.171Z,13.23
2019-02-05T09:34:16.133Z,14.53
2019-02-05T09:36:49.675Z,12.77
2019-02-05T09:39:20.461Z,12.57
2019-02-05T09:41:50.796Z,14.50
2019-02-05T09:44:20.549Z,13.30
2019-02-05T09:46:49.801Z,13.30
2019-02-05T09:49:20.085Z,13.07
2019-02-05T09:51:52.120Z,13.90
2019-02-05T09:54:21.277Z,11.00
2019-02-05T09:56:50.391Z,12.83
2019-02-05T09:59:19.833Z,14.10
2019-02-05T10:01:50.636Z,12.10
2019-02-05T10:04:20.221Z,11.63
2019-02-05T10:06:50.098Z,9.73
2019-02-05T10:09:19.373Z,11.37
2019-02-05T10:11:48.505Z,10.80
2019-02-05T10:14:20.337Z,10.30
2019-02-05T10:16:49.613Z,10.60
2019-02-05T10:19:20.828Z,11.87
2019-02-05T10:21:51.834Z,11.00
2019-02-05T10:24:21.872Z,9.93
2019-02-05T10:26:52.344Z,10.80
2019-02-05T10:29:24.433Z,9.97
2019-02-05T10:31:54.527Z,10.77
2019-02-05T10:34:33.827Z,10.60
2019-02-05T10:36:59.409Z,11.40
2019-02-05T10:39:28.714Z,10.13
2019-02-05T10:42:00.702Z,10.20
2019-02-05T10:44:36.781Z,11.00
2019-02-05T10:47:06.135Z,12.27
2019-02-05T10:49:35.302Z,11.70
2019-02-05T10:52:05.506Z,11.77
2019-02-05T10:54:39.499Z,10.90
2019-02-05T10:57:09.411Z,11.00
2019-02-05T10:59:41.743Z,10.23
2019-02-05T11:02:12.038Z,9.70
2019-02-05T11:04:41.895Z,9.90
2019-02-05T11:07:16.727Z,10.13
2019-02-05T11:09:45.905Z,9.17
2019-02-05T11:12:16.459Z,9.33
2019-02-05T11:14:45.857Z,8.90
2019-02-05T11:17:15.152Z,8.90
2019-02-05T11:19:45.966Z,7.63
2019-02-05T11:22:15.105Z,8.27
2019-02-05T11:24:44.320Z,8.87
2019-02-05T11:27:17.644Z,9.00
2019-02-05T11:29:53.256Z,9.20
2019-02-05T11:32:22.615Z,8.67
2019-02-05T11:34:53.308Z,7.00
2019-02-05T11:37:22.477Z,7.27
2019-02-05T11:39:51.808Z,9.00
2019-02-05T11:42:21.069Z,7.93
2019-02-05T11:45:00.817Z,8.80
2019-02-05T11:47:29.935Z,8.27
2019-02-05T11:50:01.794Z,7.67
2019-02-05T11:52:31.577Z,8.10
2019-02-05T11:55:01.156Z,6.60
2019-02-05T11:57:33.010Z,7.53
2019-02-05T12:00:02.595Z,7.90
2019-02-05T12:02:33.836Z,7.83
2019-02-05T12:05:06.181Z,7.37
2019-02-05T12:07:35.277Z,8.50
2019-02-05T12:10:05.118Z,6.97
2019-02-05T12:12:38.871Z,8.73
2019-02-05T12:15:09.497Z,8.50
2019-02-05T12:17:38.753Z,7.90
2019-02-05T12:20:12.129Z,9.13
2019-02-05T12:22:41.311Z,7.90
2019-02-05T12:25:12.928Z,8.83
2019-02-05T12:27:46.702Z,7.90
2019-02-05T12:30:23.273Z,7.73
2019-02-05T12:32:57.564Z,7.03
2019-02-05T12:35:26.769Z,6.30
2019-02-05T12:37:55.901Z,6.00
2019-02-05T12:40:25.766Z,6.50
2019-02-05T12:42:57.806Z,6.00
2019-02-05T12:45:28.203Z,6.13
2019-02-05T12:47:57.268Z,6.90
2019-02-05T12:50:28.508Z,6.60
2019-02-05T12:52:58.298Z,6.37
2019-02-05T12:55:31.621Z,6.57
2019-02-05T12:58:09.230Z,6.90
2019-02-05T13:00:56.598Z,6.63
2019-02-05T13:03:18.023Z,6.53
2019-02-05T13:05:56.606Z,6.27
2019-02-05T13:08:30.815Z,6.13
2019-02-05T13:11:08.591Z,6.00
2019-02-05T13:13:37.883Z,6.27
2019-02-05T13:16:11.450Z,6.00
2019-02-05T13:18:42.731Z,6.40
2019-02-05T13:21:15.118Z,5.90
2019-02-05T13:23:47.717Z,6.50
2019-02-05T13:26:15.259Z,6.93
2019-02-05T13:28:44.652Z,7.37
2019-02-05T13:31:13.765Z,7.67
2019-02-05T13:33:45.335Z,7.17
2019-02-05T13:36:22.509Z,6.60
2019-02-05T13:38:55.518Z,6.50
2019-02-05T13:41:30.240Z,6.63
2019-02-05T13:44:07.747Z,6.50
2019-02-05T13:46:37.052Z,7.90
2019-02-05T13:49:08.605Z,7.30
2019-02-05T13:51:53.184Z,7.97
2019-02-05T13:54:26.257Z,7.03
2019-02-05T13:56:59.297Z,6.90
2019-02-05T13:59:28.418Z,7.00
2019-02-05T14:01:58.058Z,7.10
2019-02-05T14:04:31.595Z,8.20
2019-02-05T14:07:02.863Z,7.67
2019-02-05T14:09:33.753Z,7.90
2019-02-05T14:12:09.556Z,7.70
2019-02-05T14:14:36.378Z,7.57
2019-02-05T14:17:05.518Z,7.00
2019-02-05T14:19:34.601Z,8.37
2019-02-05T14:22:05.758Z,7.33
2019-02-05T14:24:37.238Z,7.60
2019-02-05T14:27:12.155Z,8.33
2019-02-05T14:29:46.007Z,7.87
2019-02-05T14:32:16.137Z,7.83
2019-02-05T14:34:45.274Z,8.37
2019-02-05T14:37:18.870Z,8.37
2019-02-05T14:39:49.053Z,8.90
2019-02-05T14:42:21.849Z,8.40
2019-02-05T14:44:55.346Z,9.17
2019-02-05T14:47:28.040Z,9.50
2019-02-05T14:49:59.023Z,9.20
2019-02-05T14:55:22.279Z,9.80
2019-02-05T14:57:52.804Z,9.37
2019-02-05T15:00:41.783Z,9.30
2019-02-05T15:03:16.045Z,9.57
2019-02-05T15:05:46.023Z,10.47
2019-02-05T15:08:18.742Z,10.50
2019-02-05T15:11:02.058Z,13.37
2019-02-05T15:13:18.902Z,14.17
2019-02-05T15:15:48.327Z,12.40
2019-02-05T15:18:22.252Z,11.43
2019-02-05T15:20:57.117Z,10.70
2019-02-05T15:23:29.694Z,12.90
2019-02-05T15:25:59.320Z,11.80
2019-02-05T15:28:28.429Z,12.70
2019-02-05T15:30:59.680Z,13.60
2019-02-05T15:33:46.886Z,15.43
2019-02-05T15:36:32.029Z,10.67
2019-02-05T15:39:01.254Z,14.50
2019-02-05T15:41:36.456Z,15.83
2019-02-05T15:44:05.621Z,14.30
2019-02-05T15:46:34.808Z,14.63
2019-02-05T15:49:04.748Z,13.40
2019-02-05T15:51:33.839Z,13.20
2019-02-05T15:54:09.964Z,11.90
2019-02-05T15:56:39.049Z,14.43
2019-02-05T15:59:12.281Z,11.90
2019-02-05T16:01:41.499Z,14.07
2019-02-05T16:04:17.544Z,13.43
2019-02-05T16:06:50.183Z,13.83
2019-02-05T16:09:19.256Z,13.90
2019-02-05T16:11:51.767Z,13.57
2019-02-05T16:14:26.386Z,12.33
2019-02-05T16:16:55.525Z,12.27
2019-02-05T16:19:25.767Z,13.20
2019-02-05T16:21:54.850Z,12.90
2019-02-05T16:24:25.051Z,11.87
2019-02-05T16:26:54.207Z,11.30
2019-02-05T16:29:32.735Z,11.50
2019-02-05T16:32:01.821Z,11.03
2019-02-05T16:34:30.932Z,11.37
2019-02-05T16:37:00.253Z,10.33
2019-02-05T16:39:32.866Z,11.43
2019-02-05T16:42:02.034Z,11.50
2019-02-05T16:44:32.725Z,11.07
2019-02-05T16:47:04.332Z,10.30
2019-02-05T16:49:33.442Z,10.27
2019-02-05T16:52:02.821Z,10.00
2019-02-05T16:54:34.600Z,11.03
2019-02-05T16:57:03.725Z,10.53
2019-02-05T16:59:35.196Z,11.53
2019-02-05T17:02:04.291Z,11.10
2019-02-05T17:04:33.461Z,11.80
2019-02-05T17:07:03.982Z,10.43
2019-02-05T17:09:34.650Z,10.50
2019-02-05T17:12:09.817Z,10.77
2019-02-05T17:14:38.956Z,11.63
2019-02-05T17:17:09.344Z,11.30
2019-02-05T17:19:39.041Z,11.20
2019-02-05T17:22:08.126Z,10.40
2019-02-05T17:24:37.211Z,11.33
2019-02-05T17:27:07.484Z,11.10
2019-02-05T17:29:38.290Z,12.87
2019-02-05T17:32:09.361Z,12.00
2019-02-05T17:34:40.673Z,11.03
2019-02-05T17:37:10.906Z,10.40
2019-02-05T17:39:43.379Z,10.50
2019-02-05T17:42:17.457Z,11.13
2019-02-05T17:44:48.170Z,12.07
2019-02-05T17:47:18.178Z,11.90
2019-02-05T17:49:49.928Z,10.67
2019-02-05T17:52:20.636Z,10.73
2019-02-05T17:54:49.967Z,10.97
2019-02-05T17:57:19.040Z,11.10
2019-02-05T17:59:50.495Z,11.40
2019-02-05T18:02:22.918Z,11.47
2019-02-05T18:04:52.091Z,12.43
2019-02-05T18:07:21.218Z,11.67
2019-02-05T18:09:50.343Z,9.97
2019-02-05T18:12:24.026Z,11.40
2019-02-05T18:14:58.170Z,11.40
2019-02-05T18:17:27.465Z,13.63
2019-02-05T18:19:57.010Z,10.80
2019-02-05T18:22:27.016Z,12.90
2019-02-05T18:24:59.573Z,11.67
2019-02-05T18:27:32.787Z,11.23
2019-02-05T18:30:03.594Z,13.67
2019-02-05T18:32:32.757Z,11.60
2019-02-05T18:35:01.913Z,12.20
2019-02-05T18:37:32.856Z,11.73
2019-02-05T18:40:02.227Z,12.00
2019-02-05T18:42:31.359Z,12.07
2019-02-05T18:45:01.541Z,11.60
2019-02-05T18:47:38.373Z,11.90
2019-02-05T18:50:09.342Z,10.83
2019-02-05T18:52:39.734Z,14.73
2019-02-05T18:55:12.615Z,11.87
2019-02-05T18:57:45.257Z,10.63
2019-02-05T19:00:20.989Z,11.97
2019-02-05T19:02:51.966Z,12.20
2019-02-05T19:05:21.680Z,11.67
2019-02-05T19:07:50.800Z,11.00
2019-02-05T19:10:24.171Z,11.80
2019-02-05T19:12:54.779Z,12.93
2019-02-05T19:15:28.496Z,11.30
2019-02-05T19:17:59.702Z,11.10
2019-02-05T19:20:41.081Z,14.83
2019-02-05T19:23:12.036Z,17.33
2019-02-05T19:26:00.506Z,19.87
2019-02-05T19:28:38.640Z,22.93
2019-02-05T19:31:30.829Z,22.77
2019-02-05T19:34:06.274Z,24.00
2019-02-05T19:36:35.464Z,22.83
2019-02-05T19:39:06.522Z,24.70
2019-02-05T19:41:36.801Z,25.33
2019-02-05T19:44:06.290Z,24.67
2019-02-05T19:47:06.673Z,24.63
2019-02-05T19:49:37.720Z,21.97
2019-02-05T19:52:13.731Z,25.40
2019-02-05T19:54:42.938Z,20.90
2019-02-05T19:57:12.034Z,24.07
2019-02-05T19:59:42.432Z,21.40
2019-02-05T20:02:11.531Z,21.37
2019-02-05T20:04:43.040Z,19.20
2019-02-05T20:07:17.279Z,19.10
2019-02-05T20:09:46.349Z,20.03
2019-02-05T20:12:16.838Z,17.33
2019-02-05T20:14:52.501Z,15.53
2019-02-05T20:17:21.706Z,17.70
2019-02-05T20:19:50.770Z,16.93
2019-02-05T20:22:21.599Z,14.87
2019-02-05T20:24:50.938Z,14.97
2019-02-05T20:27:26.541Z,16.50
2019-02-05T20:30:03.781Z,15.20
2019-02-05T20:32:32.916Z,13.50
2019-02-05T20:35:02.221Z,14.50
2019-02-05T20:37:36.641Z,13.77
2019-02-05T20:40:11.599Z,12.67
2019-02-05T20:42:42.733Z,13.10
2019-02-05T20:45:12.347Z,11.77
2019-02-05T20:47:43.925Z,15.73
2019-02-05T20:50:17.329Z,11.73
2019-02-05T20:52:48.186Z,13.63
2019-02-05T20:55:19.754Z,13.97
2019-02-05T20:57:53.342Z,14.33
2019-02-05T21:00:22.714Z,13.30
2019-02-05T21:02:53.510Z,13.67
2019-02-05T21:05:24.888Z,13.27
2019-02-05T21:07:55.767Z,12.33
2019-02-05T21:10:25.053Z,13.60
2019-02-05T21:12:55.764Z,14.10
2019-02-05T21:15:27.092Z,13.40
2019-02-05T21:17:55.987Z,13.87
2019-02-05T21:20:30.816Z,13.97
2019-02-05T21:22:57.060Z,15.80
2019-02-05T21:25:31.534Z,13.40
2019-02-05T21:28:00.644Z,15.13
2019-02-05T21:30:29.885Z,14.60
2019-02-05T21:33:04.192Z,13.93
2019-02-05T21:35:33.399Z,13.27
2019-02-05T21:38:06.648Z,14.37
2019-02-05T21:40:36.971Z,16.27
2019-02-05T21:43:08.653Z,12.70
2019-02-05T21:45:37.835Z,13.53
2019-02-05T21:48:06.970Z,12.80
2019-02-05T21:50:36.064Z,15.50
2019-02-05T21:53:05.472Z,15.07
2019-02-05T21:55:34.826Z,15.27
2019-02-05T21:58:07.265Z,14.33
2019-02-05T22:00:39.487Z,16.60
2019-02-05T22:03:08.586Z,14.60
2019-02-05T22:05:40.209Z,13.27
2019-02-05T22:08:12.264Z,12.50
2019-02-05T22:10:42.933Z,13.27
2019-02-05T22:13:14.904Z,12.57
2019-02-05T22:15:46.360Z,12.03
2019-02-05T22:18:15.502Z,11.83
2019-02-05T22:20:44.936Z,11.73
2019-02-05T22:23:23.634Z,11.87
2019-02-05T22:25:53.658Z,10.33
2019-02-05T22:28:23.616Z,13.00
2019-02-05T22:30:53.205Z,11.80
2019-02-05T22:33:28.541Z,11.90
2019-02-05T22:35:59.424Z,10.70
2019-02-05T22:38:30.129Z,9.63
2019-02-05T22:41:00.413Z,12.33
2019-02-05T22:43:34.030Z,12.07
2019-02-05T22:46:03.162Z,12.20
2019-02-05T22:48:32.671Z,11.30
2019-02-05T22:51:01.788Z,9.90
2019-02-05T22:53:34.081Z,10.87
2019-02-05T22:56:07.824Z,12.10
2019-02-05T22:58:36.944Z,11.20
2019-02-05T23:01:42.869Z,12.63
2019-02-05T23:04:52.910Z,11.37
2019-02-05T23:07:25.195Z,10.80
2019-02-05T23:10:40.336Z,10.67
2019-02-05T23:13:12.265Z,10.20
2019-02-05T23:15:45.286Z,12.03
2019-02-05T23:18:17.372Z,9.97
2019-02-05T23:20:48.425Z,10.93
2019-02-05T23:23:20.122Z,11.80
2019-02-05T23:25:49.227Z,9.57
2019-02-05T23:28:18.539Z,10.60
2019-02-05T23:30:49.345Z,10.53
2019-02-05T23:33:19.653Z,10.70
2019-02-05T23:35:50.437Z,10.80
2019-02-05T23:38:19.530Z,11.53
2019-02-05T23:40:48.869Z,11.00
2019-02-05T23:43:22.323Z,10.27
2019-02-05T23:46:01.496Z,10.20
2019-02-05T23:48:26.613Z,11.87
2019-02-05T23:51:00.969Z,10.90
2019-02-05T23:53:29.779Z,10.03
2019-02-05T23:55:58.959Z,15.43
2019-02-05T23:58:30.163Z,10.73
